Time;durP1;ratioP1;P1;durP2;ratioP2;P2;SDS_P1;SDS_P2;PMS_P1;PMS_P2;Temp;Humidity;BMP_temperature;BMP_pressure;BME280_temperature;BME280_humidity;BME280_pressure;Samples;Min_cycle;Max_cycle;Signal;HPM_P1;HPM_P2
2022/01/26 00:07:54;;;;;;;68.07;24.10;;;-0.20;99.90;;;;;;5073687;28;20196;-75
2022/01/26 00:10:22;;;;;;;60.90;25.17;;;-0.10;99.90;;;;;;5073801;28;20258;-74
2022/01/26 00:12:49;;;;;;;52.67;23.80;;;-0.20;99.90;;;;;;5073678;28;20606;-75
2022/01/26 00:15:17;;;;;;;61.40;26.07;;;-0.20;99.90;;;;;;5073630;28;20601;-74
2022/01/26 00:17:44;;;;;;;51.43;24.90;;;-0.30;99.90;;;;;;5073484;28;20740;-74
2022/01/26 00:20:18;;;;;;;56.97;25.33;;;-0.20;99.90;;;;;;5073757;28;20225;-74
2022/01/26 00:22:59;;;;;;;51.43;23.83;;;-0.20;99.90;;;;;;5073706;28;20840;-74
2022/01/26 00:25:38;;;;;;;53.23;24.57;;;-0.20;99.90;;;;;;5074976;28;20192;-74
2022/01/26 00:28:30;;;;;;;51.87;24.57;;;-0.20;99.90;;;;;;5080326;28;20201;-74
2022/01/26 00:39:10;;;;;;;52.13;24.17;;;-0.10;99.90;;;;;;5082198;28;20758;-73
2022/01/26 00:41:39;;;;;;;51.47;23.10;;;-0.10;99.90;;;;;;5080338;28;20225;-74
2022/01/26 00:44:08;;;;;;;52.93;23.87;;;-0.10;99.90;;;;;;5080086;28;20238;-73
2022/01/26 00:46:37;;;;;;;48.57;22.97;;;-0.10;99.90;;;;;;5081052;28;20196;-74
2022/01/26 00:49:04;;;;;;;52.50;22.93;;;-0.10;99.90;;;;;;5081094;28;20197;-74
2022/01/26 00:51:31;;;;;;;50.47;22.00;;;-0.10;99.90;;;;;;5080087;28;20235;-75
2022/01/26 00:54:03;;;;;;;55.43;25.20;;;-0.20;99.90;;;;;;5079453;28;20228;-74
2022/01/26 00:56:30;;;;;;;61.33;23.27;;;-0.20;99.90;;;;;;5079737;28;20227;-74
2022/01/26 00:58:57;;;;;;;57.07;24.00;;;-0.20;99.90;;;;;;5079363;28;20197;-74
2022/01/26 01:01:23;;;;;;;57.87;24.80;;;-0.20;99.90;;;;;;5079612;28;20232;-74
2022/01/26 01:03:51;;;;;;;57.13;24.70;;;-0.30;99.90;;;;;;5079732;28;20192;-74
2022/01/26 01:06:23;;;;;;;58.10;25.27;;;-0.30;99.90;;;;;;5079732;28;20204;-74
2022/01/26 01:08:50;;;;;;;60.17;25.13;;;-0.30;99.90;;;;;;5079577;28;20203;-74
2022/01/26 01:11:17;;;;;;;65.90;27.10;;;-0.30;99.90;;;;;;5079165;28;20228;-73
2022/01/26 01:13:45;;;;;;;67.13;26.37;;;-0.20;99.90;;;;;;5079424;28;20665;-72
2022/01/26 01:16:18;;;;;;;64.17;26.47;;;-0.20;99.90;;;;;;5079896;28;20291;-74
2022/01/26 01:18:51;;;;;;;67.70;27.63;;;-0.20;99.90;;;;;;5080178;28;20262;-74
2022/01/26 01:21:59;;;;;;;60.67;26.27;;;-0.20;99.90;;;;;;5079804;28;20233;-74
2022/01/26 01:30:07;;;;;;;65.47;25.90;;;-0.30;99.90;;;;;;5079731;28;20203;-73
2022/01/26 01:32:39;;;;;;;66.43;26.50;;;-0.30;99.90;;;;;;5080141;28;20208;-73
2022/01/26 01:35:09;;;;;;;60.33;25.07;;;-0.30;99.90;;;;;;5080240;28;20204;-73
2022/01/26 01:37:38;;;;;;;73.30;27.73;;;-0.20;99.90;;;;;;5077572;28;20205;-73
2022/01/26 01:40:05;;;;;;;79.03;29.13;;;-0.20;99.90;;;;;;5076446;28;20197;-73
2022/01/26 01:42:32;;;;;;;77.63;28.50;;;-0.30;99.90;;;;;;5078832;28;20197;-73
2022/01/26 01:44:59;;;;;;;75.13;26.07;;;-0.30;99.90;;;;;;5077263;28;20270;-73
2022/01/26 01:47:26;;;;;;;69.40;28.30;;;-0.30;99.90;;;;;;5076831;28;20648;-73
2022/01/26 01:49:52;;;;;;;76.17;27.00;;;-0.20;99.90;;;;;;5077023;28;20676;-74
2022/01/26 01:52:19;;;;;;;80.20;29.17;;;-0.20;99.90;;;;;;5075965;28;20225;-73
2022/01/26 01:54:52;;;;;;;85.07;30.17;;;-0.20;99.90;;;;;;5076620;28;20594;-73
2022/01/26 01:57:23;;;;;;;82.97;28.73;;;-0.20;99.90;;;;;;5078569;28;20300;-73
2022/01/26 01:59:50;;;;;;;72.83;29.83;;;-0.20;99.90;;;;;;5077874;28;20291;-74
2022/01/26 02:02:17;;;;;;;90.87;30.77;;;-0.20;99.90;;;;;;5078392;28;20225;-73
2022/01/26 02:04:44;;;;;;;100.73;31.87;;;-0.20;99.90;;;;;;5078362;28;20251;-73
2022/01/26 02:07:12;;;;;;;77.77;28.10;;;-0.20;99.90;;;;;;5078345;28;20200;-73
2022/01/26 02:09:39;;;;;;;76.47;27.33;;;-0.20;99.90;;;;;;5078623;28;20197;-73
2022/01/26 02:12:14;;;;;;;72.77;28.70;;;-0.30;99.90;;;;;;5078845;28;20201;-73
2022/01/26 02:14:50;;;;;;;79.90;29.50;;;-0.40;99.90;;;;;;5078622;28;20196;-74
2022/01/26 02:17:29;;;;;;;71.57;26.90;;;-0.40;99.90;;;;;;5075731;28;20283;-74
2022/01/26 02:20:24;;;;;;;75.07;27.43;;;-0.40;99.90;;;;;;5075691;28;20208;-74
2022/01/26 02:50:53;;;;;;;63.37;24.37;;;-0.40;99.90;;;;;;5078543;28;20227;-75
2022/01/26 02:53:39;;;;;;;57.97;24.07;;;-0.40;99.90;;;;;;5080001;28;20235;-73
2022/01/26 02:56:14;;;;;;;56.30;24.47;;;-0.40;99.90;;;;;;5079403;28;20201;-73
2022/01/26 02:59:07;;;;;;;60.70;25.00;;;-0.40;99.90;;;;;;5075078;28;20196;-74
2022/01/26 03:01:48;;;;;;;65.87;25.33;;;-0.40;99.90;;;;;;5074820;28;20221;-73
2022/01/26 03:04:22;;;;;;;70.40;27.07;;;-0.40;99.90;;;;;;5075236;28;20201;-73
2022/01/26 03:06:55;;;;;;;77.73;30.23;;;-0.40;99.90;;;;;;5074933;28;20291;-73
2022/01/26 03:09:27;;;;;;;76.33;27.67;;;-0.40;99.90;;;;;;5074993;28;20201;-73
2022/01/26 03:11:57;;;;;;;91.50;30.43;;;-0.40;99.90;;;;;;5074908;28;20205;-73
2022/01/26 03:14:33;;;;;;;84.70;31.23;;;-0.50;99.90;;;;;;5074820;28;20291;-74
2022/01/26 03:17:06;;;;;;;74.00;27.97;;;-0.50;99.90;;;;;;5075414;28;20248;-74
2022/01/26 03:19:37;;;;;;;80.90;28.63;;;-0.50;99.90;;;;;;5079014;28;20201;-74
2022/01/26 03:28:07;;;;;;;74.00;26.93;;;-0.60;99.90;;;;;;5080194;28;20221;-74
2022/01/26 03:30:47;;;;;;;61.63;25.33;;;-0.60;99.90;;;;;;5066486;28;20414;-75
2022/01/26 03:33:25;;;;;;;64.53;25.43;;;-0.60;99.90;;;;;;5078333;28;20201;-73
2022/01/26 03:35:55;;;;;;;69.70;24.93;;;-0.60;99.90;;;;;;5074874;28;20682;-74
2022/01/26 03:38:26;;;;;;;64.23;24.63;;;-0.70;99.90;;;;;;5074140;28;20670;-74
2022/01/26 03:41:09;;;;;;;72.40;25.57;;;-0.70;99.90;;;;;;5073759;28;20530;-74
2022/01/26 03:43:37;;;;;;;63.80;24.93;;;-0.70;99.90;;;;;;5073956;28;20197;-74
2022/01/26 03:46:04;;;;;;;71.30;26.73;;;-0.70;99.90;;;;;;5074217;28;20201;-74
2022/01/26 03:48:30;;;;;;;67.93;24.97;;;-0.70;99.90;;;;;;5074105;28;20201;-74
2022/01/26 03:50:57;;;;;;;70.50;25.47;;;-0.70;99.90;;;;;;5074452;28;20197;-73
2022/01/26 03:53:24;;;;;;;69.23;25.23;;;-0.70;99.90;;;;;;5073865;28;20278;-73
2022/01/26 03:55:52;;;;;;;67.87;24.07;;;-0.70;99.90;;;;;;5074020;28;20200;-73
2022/01/26 03:58:19;;;;;;;65.13;24.13;;;-0.70;99.90;;;;;;5074280;28;20200;-73
2022/01/26 04:00:47;;;;;;;58.37;23.23;;;-0.70;99.90;;;;;;5074531;28;20243;-73
2022/01/26 04:03:13;;;;;;;66.07;24.93;;;-0.70;99.90;;;;;;5075142;28;20247;-73
2022/01/26 04:05:40;;;;;;;75.03;24.73;;;-0.70;99.90;;;;;;5074674;28;20262;-73
2022/01/26 04:08:12;;;;;;;63.20;23.90;;;-0.70;99.90;;;;;;5074516;28;20235;-73
2022/01/26 04:10:50;;;;;;;70.00;25.10;;;-0.70;99.90;;;;;;5074513;28;20221;-73
2022/01/26 04:13:17;;;;;;;66.10;23.67;;;-0.70;99.90;;;;;;5075027;28;20716;-74
2022/01/26 04:15:44;;;;;;;69.53;24.03;;;-0.80;99.90;;;;;;5075154;28;20253;-73
2022/01/26 04:18:16;;;;;;;61.30;24.67;;;-0.90;99.90;;;;;;5074093;28;20197;-73
2022/01/26 04:20:47;;;;;;;75.17;26.03;;;-0.90;99.90;;;;;;5073994;28;20197;-73
2022/01/26 04:23:19;;;;;;;74.97;24.50;;;-0.90;99.90;;;;;;5078605;28;20231;-74
2022/01/26 04:25:47;;;;;;;67.70;25.33;;;-0.90;99.90;;;;;;5081285;28;20197;-74
2022/01/26 04:28:19;;;;;;;72.60;26.60;;;-0.80;99.90;;;;;;5082172;28;20197;-74
2022/01/26 04:30:46;;;;;;;67.53;25.70;;;-0.80;99.90;;;;;;5081689;28;20284;-74
2022/01/26 04:33:14;;;;;;;82.27;26.57;;;-0.70;99.90;;;;;;5081418;28;20203;-74
2022/01/26 04:35:44;;;;;;;74.80;26.33;;;-0.70;99.90;;;;;;5082173;28;20193;-74
2022/01/26 04:38:18;;;;;;;77.30;27.00;;;-0.70;99.90;;;;;;5077187;28;20197;-74
2022/01/26 04:40:54;;;;;;;65.60;26.47;;;-0.70;99.90;;;;;;5074549;28;20196;-74
2022/01/26 04:43:26;;;;;;;58.70;21.87;;;-0.60;99.90;;;;;;5074379;28;20258;-74
2022/01/26 04:45:53;;;;;;;58.87;23.87;;;-0.70;99.90;;;;;;5073920;28;20201;-74
2022/01/26 04:48:21;;;;;;;59.70;21.93;;;-0.60;99.90;;;;;;5074147;28;20197;-74
2022/01/26 04:50:48;;;;;;;55.07;22.73;;;-0.60;99.90;;;;;;5074078;28;20197;-74
2022/01/26 04:53:14;;;;;;;56.90;23.20;;;-0.70;99.90;;;;;;5073468;28;20290;-74
2022/01/26 04:55:42;;;;;;;54.47;21.90;;;-0.60;99.90;;;;;;5073764;28;20197;-74
2022/01/26 04:58:09;;;;;;;64.23;25.53;;;-0.70;99.90;;;;;;5073550;28;20197;-74
2022/01/26 05:00:35;;;;;;;66.40;23.97;;;-0.70;99.90;;;;;;5073384;28;20597;-74
2022/01/26 05:03:02;;;;;;;57.57;23.10;;;-0.70;99.90;;;;;;5073689;28;20243;-74
2022/01/26 05:05:30;;;;;;;48.57;19.63;;;-0.70;99.90;;;;;;5073452;28;20197;-75
2022/01/26 05:07:57;;;;;;;51.13;21.57;;;-0.70;99.90;;;;;;5072965;28;20722;-74
2022/01/26 05:10:24;;;;;;;49.07;21.00;;;-0.70;99.90;;;;;;5073098;28;20209;-74
2022/01/26 05:12:50;;;;;;;40.53;17.27;;;-0.80;99.90;;;;;;5073850;28;20197;-74
2022/01/26 05:15:21;;;;;;;45.60;19.20;;;-0.70;99.90;;;;;;5076635;28;20664;-74
2022/01/26 05:17:48;;;;;;;43.23;18.23;;;-0.70;99.90;;;;;;5076776;28;20211;-74
2022/01/26 05:20:15;;;;;;;38.83;17.63;;;-0.70;99.90;;;;;;5076631;28;20193;-74
2022/01/26 05:22:44;;;;;;;40.37;17.97;;;-0.70;99.90;;;;;;5079870;28;20312;-74
2022/01/26 05:25:12;;;;;;;28.93;13.57;;;-0.70;99.90;;;;;;5079277;28;20342;-74
2022/01/26 05:27:39;;;;;;;29.40;14.10;;;-0.80;99.90;;;;;;5076710;28;20219;-74
2022/01/26 05:30:07;;;;;;;29.23;13.77;;;-0.90;99.90;;;;;;5076584;28;20538;-74
2022/01/26 05:32:34;;;;;;;39.23;17.43;;;-0.90;99.90;;;;;;5076615;28;20231;-74
2022/01/26 05:35:01;;;;;;;35.87;17.27;;;-0.90;99.90;;;;;;5077060;28;20193;-73
2022/01/26 05:37:28;;;;;;;38.43;16.37;;;-0.90;99.90;;;;;;5077246;28;20220;-74
2022/01/26 05:39:56;;;;;;;34.03;16.23;;;-0.80;99.90;;;;;;5077054;28;20330;-75
2022/01/26 05:42:23;;;;;;;27.03;13.40;;;-0.90;99.90;;;;;;5076324;28;20225;-75
2022/01/26 05:44:50;;;;;;;30.40;13.37;;;-0.90;99.90;;;;;;5076627;28;20207;-74
2022/01/26 05:47:18;;;;;;;25.17;13.00;;;-0.90;99.90;;;;;;5076750;28;20197;-74
2022/01/26 05:49:45;;;;;;;28.20;12.87;;;-1.00;99.90;;;;;;5076510;28;20258;-75
2022/01/26 05:52:12;;;;;;;22.77;12.07;;;-1.00;99.90;;;;;;5077003;28;20664;-76
2022/01/26 05:54:38;;;;;;;31.07;13.83;;;-1.10;99.90;;;;;;5076562;28;20710;-75
2022/01/26 05:57:07;;;;;;;31.07;13.60;;;-1.10;99.90;;;;;;5076532;28;20726;-74
2022/01/26 05:59:33;;;;;;;27.60;13.13;;;-1.10;99.90;;;;;;5076383;28;20246;-74
2022/01/26 06:02:00;;;;;;;30.73;14.20;;;-1.10;99.90;;;;;;5082546;28;20753;-74
2022/01/26 06:04:28;;;;;;;27.63;12.83;;;-1.10;99.90;;;;;;5082413;28;20193;-73
2022/01/26 06:06:56;;;;;;;28.53;13.53;;;-1.10;99.90;;;;;;5082982;28;20192;-72
2022/01/26 06:09:23;;;;;;;29.97;14.63;;;-1.10;99.90;;;;;;5079646;28;20300;-73
2022/01/26 06:11:50;;;;;;;29.63;12.77;;;-1.00;99.90;;;;;;5076277;28;20203;-73
2022/01/26 06:14:18;;;;;;;25.43;12.60;;;-0.90;99.90;;;;;;5075705;28;20197;-74
2022/01/26 06:16:44;;;;;;;30.33;13.40;;;-1.00;99.90;;;;;;5076222;28;20649;-74
2022/01/26 06:19:11;;;;;;;25.40;12.53;;;-0.90;99.90;;;;;;5078192;28;20590;-74
2022/01/26 06:21:38;;;;;;;33.23;16.50;;;-1.00;99.90;;;;;;5075662;28;20600;-74
2022/01/26 06:24:05;;;;;;;27.43;13.50;;;-1.00;99.90;;;;;;5075227;28;20196;-74
2022/01/26 06:26:32;;;;;;;34.27;19.20;;;-1.00;99.90;;;;;;5076131;28;20197;-73
2022/01/26 06:29:00;;;;;;;205.87;107.87;;;-1.00;99.90;;;;;;5075724;28;20208;-74
2022/01/26 06:31:28;;;;;;;43.33;23.27;;;-1.00;99.90;;;;;;5075640;28;20197;-73
2022/01/26 06:33:57;;;;;;;44.60;25.60;;;-1.00;99.90;;;;;;5075223;28;20615;-74
2022/01/26 06:36:23;;;;;;;24.60;13.30;;;-1.10;99.90;;;;;;5075291;28;20600;-75
2022/01/26 06:38:51;;;;;;;27.73;13.97;;;-1.00;99.90;;;;;;5075766;28;20590;-74
2022/01/26 06:41:23;;;;;;;30.47;15.40;;;-1.00;99.90;;;;;;5075556;28;20197;-74
2022/01/26 06:43:56;;;;;;;24.63;12.50;;;-1.00;99.90;;;;;;5075672;28;20225;-73
2022/01/26 06:46:28;;;;;;;24.10;12.87;;;-1.10;99.90;;;;;;5075363;28;20196;-74
2022/01/26 06:49:28;;;;;;;28.67;13.30;;;-1.10;99.90;;;;;;5075129;28;20200;-74
2022/01/26 06:51:47;;;;;;;28.70;14.07;;;-1.20;99.90;;;;;;5075168;28;20200;-74
2022/01/26 06:54:14;;;;;;;29.60;15.77;;;-1.20;99.90;;;;;;5079054;28;20220;-73
2022/01/26 06:56:41;;;;;;;36.87;15.53;;;-1.20;99.90;;;;;;5083820;28;20649;-75
2022/01/26 06:59:07;;;;;;;35.47;16.10;;;-1.00;99.90;;;;;;5084304;28;20193;-75
2022/01/26 07:01:34;;;;;;;34.23;16.37;;;-1.10;99.90;;;;;;5083004;28;20192;-76
2022/01/26 07:04:02;;;;;;;30.63;15.10;;;-1.10;99.90;;;;;;5084158;28;20225;-74
2022/01/26 07:06:29;;;;;;;30.73;14.07;;;-1.00;99.90;;;;;;5082810;28;20197;-75
2022/01/26 07:08:55;;;;;;;30.83;12.97;;;-1.00;99.90;;;;;;5082356;28;20192;-76
2022/01/26 07:11:22;;;;;;;30.80;13.00;;;-1.00;99.90;;;;;;5085714;28;20188;-76
2022/01/26 07:13:51;;;;;;;29.60;15.10;;;-1.10;99.90;;;;;;5086588;28;20196;-76
2022/01/26 07:21:48;;;;;;;19.97;11.20;;;-0.90;99.90;;;;;;5082850;28;20556;-68
2022/01/26 07:24:14;;;;;;;18.57;10.60;;;-0.80;99.90;;;;;;5083553;28;20242;-74
2022/01/26 07:26:42;;;;;;;22.20;11.53;;;-0.90;99.90;;;;;;5085324;28;20215;-74
2022/01/26 07:29:11;;;;;;;20.97;12.10;;;-1.00;99.90;;;;;;5084422;28;20220;-74
2022/01/26 07:31:42;;;;;;;26.27;13.77;;;-0.90;99.90;;;;;;5078995;28;20196;-74
2022/01/26 07:34:10;;;;;;;28.70;14.70;;;-0.90;99.90;;;;;;5082121;28;20188;-72
2022/01/26 07:36:37;;;;;;;32.93;15.47;;;-0.90;99.90;;;;;;5081255;28;20206;-74
2022/01/26 07:39:08;;;;;;;35.20;14.80;;;-0.90;99.90;;;;;;5083591;28;20186;-74
2022/01/26 07:41:34;;;;;;;23.93;13.10;;;-0.90;99.90;;;;;;5082491;28;20189;-74
2022/01/26 07:44:01;;;;;;;23.67;12.87;;;-0.90;99.90;;;;;;5083004;28;20220;-73
2022/01/26 07:46:28;;;;;;;22.77;12.37;;;-0.90;99.90;;;;;;5085057;28;20582;-73
2022/01/26 07:48:55;;;;;;;25.17;12.90;;;-0.90;99.90;;;;;;5084311;28;20258;-73
2022/01/26 07:51:23;;;;;;;20.67;11.27;;;-0.90;99.90;;;;;;5083625;28;20296;-74
2022/01/26 07:53:50;;;;;;;18.57;10.33;;;-1.00;99.90;;;;;;5084875;28;20221;-73
2022/01/26 07:56:16;;;;;;;19.90;10.30;;;-1.10;99.90;;;;;;5082607;28;20193;-73
2022/01/26 07:58:45;;;;;;;18.03;9.70;;;-1.10;99.90;;;;;;5078942;28;20723;-74
2022/01/26 08:01:12;;;;;;;18.40;9.87;;;-1.10;99.90;;;;;;5082462;28;20209;-74
2022/01/26 08:03:39;;;;;;;17.43;9.53;;;-1.10;99.90;;;;;;5081697;28;20267;-74
2022/01/26 08:06:06;;;;;;;23.77;10.87;;;-1.10;99.90;;;;;;5084959;28;20196;-74
2022/01/26 08:08:34;;;;;;;22.77;10.97;;;-1.00;99.90;;;;;;5086829;28;20188;-73
2022/01/26 08:11:01;;;;;;;19.60;10.77;;;-1.10;99.90;;;;;;5083334;28;20198;-73
2022/01/26 08:13:28;;;;;;;20.63;10.53;;;-1.10;99.90;;;;;;5083409;28;20201;-73
2022/01/26 08:15:57;;;;;;;16.53;10.43;;;-1.00;99.90;;;;;;5083000;28;20596;-73
2022/01/26 08:18:23;;;;;;;19.63;8.87;;;-1.10;99.90;;;;;;5083324;28;20282;-76
2022/01/26 08:20:50;;;;;;;17.10;9.00;;;-1.20;99.90;;;;;;5083349;28;20188;-78
2022/01/26 08:23:19;;;;;;;18.83;9.97;;;-1.10;99.90;;;;;;5084968;28;20294;-75
2022/01/26 08:25:50;;;;;;;17.63;10.53;;;-1.10;99.90;;;;;;5081942;28;20247;-76
2022/01/26 08:28:23;;;;;;;18.47;10.23;;;-0.90;99.90;;;;;;5086092;28;20223;-74
2022/01/26 08:30:49;;;;;;;18.77;10.87;;;-0.90;99.90;;;;;;5083554;28;20197;-73
2022/01/26 08:33:16;;;;;;;60.23;43.60;;;-1.00;99.90;;;;;;5082460;28;20192;-74
2022/01/26 08:35:43;;;;;;;25.53;14.20;;;-1.00;99.90;;;;;;5083728;28;20193;-75
2022/01/26 08:38:10;;;;;;;30.37;14.80;;;-1.00;99.90;;;;;;5084610;28;20200;-72
2022/01/26 08:40:37;;;;;;;21.57;12.30;;;-1.10;99.90;;;;;;5076545;28;20197;-76
2022/01/26 08:43:05;;;;;;;29.60;14.80;;;-1.00;99.90;;;;;;5073799;28;20221;-75
2022/01/26 08:45:32;;;;;;;28.20;14.43;;;-1.00;99.90;;;;;;5073966;28;20225;-75
2022/01/26 08:47:59;;;;;;;36.33;18.07;;;-1.10;99.90;;;;;;5079669;28;20200;-76
2022/01/26 08:50:25;;;;;;;36.10;18.63;;;-1.10;99.90;;;;;;5085625;28;20201;-76
2022/01/26 08:52:53;;;;;;;30.33;15.63;;;-1.10;99.90;;;;;;5085459;28;20237;-75
2022/01/26 08:55:20;;;;;;;33.73;15.47;;;-1.20;99.90;;;;;;5085110;28;20201;-75
2022/01/26 08:57:46;;;;;;;28.37;13.20;;;-1.20;99.90;;;;;;5078690;28;20193;-76
2022/01/26 09:00:16;;;;;;;27.93;13.90;;;-1.00;99.90;;;;;;5077816;28;20602;-75
2022/01/26 09:02:43;;;;;;;32.80;14.80;;;-1.00;99.90;;;;;;5079609;28;20208;-75
2022/01/26 09:05:10;;;;;;;30.30;13.83;;;-1.00;99.90;;;;;;5080424;28;20688;-76
2022/01/26 09:07:40;;;;;;;27.70;14.20;;;-1.10;99.90;;;;;;5079367;28;20193;-76
2022/01/26 09:10:07;;;;;;;30.17;14.30;;;-1.10;99.90;;;;;;5077980;28;20660;-76
2022/01/26 09:12:37;;;;;;;30.03;13.33;;;-1.00;99.90;;;;;;5076857;28;20197;-74
2022/01/26 09:15:06;;;;;;;30.83;14.43;;;-1.10;99.90;;;;;;5078527;28;20232;-75
2022/01/26 09:17:35;;;;;;;30.90;13.47;;;-1.10;99.90;;;;;;5080160;28;20649;-76
2022/01/26 09:20:03;;;;;;;26.87;12.63;;;-1.10;99.90;;;;;;5080823;28;20297;-75
2022/01/26 09:22:29;;;;;;;29.63;12.00;;;-1.00;99.90;;;;;;5080138;28;20671;-75
2022/01/26 09:24:56;;;;;;;23.47;11.97;;;-1.00;99.90;;;;;;5079879;28;20204;-75
2022/01/26 09:27:23;;;;;;;24.40;11.17;;;-0.90;99.90;;;;;;5080464;28;20193;-76
2022/01/26 09:29:50;;;;;;;22.83;11.10;;;-0.90;99.90;;;;;;5080709;28;20193;-76
2022/01/26 09:32:16;;;;;;;21.10;9.93;;;-0.90;99.90;;;;;;5080185;28;20242;-76
2022/01/26 09:34:45;;;;;;;19.30;9.60;;;-0.90;99.90;;;;;;5078902;28;20205;-76
2022/01/26 09:37:14;;;;;;;18.63;10.10;;;-0.90;99.90;;;;;;5078276;28;20266;-76
2022/01/26 09:39:42;;;;;;;17.83;9.50;;;-1.00;99.90;;;;;;5077496;28;20196;-76
2022/01/26 09:42:10;;;;;;;20.97;9.57;;;-0.90;99.90;;;;;;5078767;28;20204;-75
2022/01/26 09:44:37;;;;;;;19.83;10.23;;;-1.00;99.90;;;;;;5078075;28;20274;-75
2022/01/26 09:47:05;;;;;;;20.27;10.67;;;-1.00;99.90;;;;;;5079087;28;20193;-75
2022/01/26 09:49:33;;;;;;;24.60;12.10;;;-1.00;99.90;;;;;;5079130;28;20564;-75
2022/01/26 09:52:06;;;;;;;25.27;12.57;;;-0.90;99.90;;;;;;5079266;28;20664;-75
2022/01/26 09:54:33;;;;;;;23.87;11.60;;;-0.90;99.90;;;;;;5079877;28;20291;-75
2022/01/26 09:57:02;;;;;;;24.43;12.47;;;-0.90;99.90;;;;;;5079484;28;20223;-77
2022/01/26 09:59:30;;;;;;;26.47;13.07;;;-0.80;99.90;;;;;;5081280;28;20235;-77
2022/01/26 10:01:56;;;;;;;24.30;13.10;;;-0.90;99.90;;;;;;5080624;28;20245;-76
2022/01/26 10:04:25;;;;;;;26.37;12.97;;;-1.00;99.90;;;;;;5083004;28;20229;-75
2022/01/26 10:07:10;;;;;;;29.73;13.23;;;-0.80;99.90;;;;;;5083632;28;20583;-76
2022/01/26 10:09:55;;;;;;;29.67;12.90;;;-0.70;99.90;;;;;;5084335;28;20201;-76
2022/01/26 10:15:28;;;;;;;25.37;11.93;;;-0.70;99.90;;;;;;5086704;28;20238;-76
2022/01/26 10:18:05;;;;;;;26.93;12.67;;;-0.70;99.90;;;;;;5083569;28;20232;-75
2022/01/26 10:20:47;;;;;;;34.23;16.17;;;-0.70;99.90;;;;;;5082918;28;20203;-75
2022/01/26 10:23:17;;;;;;;24.33;12.10;;;-0.80;99.90;;;;;;5083526;28;20220;-75
2022/01/26 10:25:47;;;;;;;24.80;12.47;;;-0.90;99.90;;;;;;5083293;28;20197;-75
2022/01/26 10:28:15;;;;;;;27.10;14.07;;;-0.80;99.90;;;;;;5082172;28;20200;-75
2022/01/26 10:30:47;;;;;;;31.50;14.93;;;-0.70;99.90;;;;;;5080964;28;20208;-75
2022/01/26 10:33:17;;;;;;;34.13;15.70;;;-0.70;99.90;;;;;;5080154;28;20251;-75
2022/01/26 10:35:44;;;;;;;32.20;15.77;;;-0.80;99.90;;;;;;5080510;28;20224;-76
2022/01/26 10:38:11;;;;;;;36.93;18.00;;;-0.80;99.90;;;;;;5081518;28;20207;-75
2022/01/26 10:40:40;;;;;;;33.03;16.10;;;-0.70;99.90;;;;;;5079161;28;20197;-75
2022/01/26 10:43:10;;;;;;;29.20;14.20;;;-0.60;99.90;;;;;;5078170;28;20205;-77
2022/01/26 10:48:37;;;;;;;31.40;15.43;;;-0.60;99.90;;;;;;5072754;28;20204;-78
2022/01/26 10:54:10;;;;;;;26.17;12.50;;;-0.70;99.90;;;;;;5078305;28;20236;-75
2022/01/26 10:56:39;;;;;;;24.87;12.77;;;-0.80;99.90;;;;;;5076089;28;20530;-77
2022/01/26 10:59:06;;;;;;;25.17;12.83;;;-0.80;99.90;;;;;;5076611;28;20201;-76
2022/01/26 11:01:36;;;;;;;29.47;14.97;;;-0.80;99.90;;;;;;5076802;28;20268;-75
2022/01/26 11:04:03;;;;;;;37.23;17.80;;;-0.70;99.90;;;;;;5075916;28;20232;-76
2022/01/26 11:06:31;;;;;;;40.43;19.83;;;-0.80;99.90;;;;;;5076209;28;20275;-76
2022/01/26 11:09:01;;;;;;;31.67;15.37;;;-0.80;99.90;;;;;;5076526;28;20205;-77
2022/01/26 11:11:27;;;;;;;38.80;20.23;;;-0.70;99.90;;;;;;5076175;28;20813;-75
2022/01/26 11:13:56;;;;;;;28.57;14.50;;;-0.70;99.90;;;;;;5076287;28;20247;-76
2022/01/26 11:16:23;;;;;;;29.47;15.03;;;-0.70;99.90;;;;;;5076314;28;20208;-77
2022/01/26 11:18:52;;;;;;;29.53;14.53;;;-0.70;99.90;;;;;;5076692;28;20201;-76
2022/01/26 11:21:30;;;;;;;30.83;15.63;;;-0.60;99.90;;;;;;5076361;28;20197;-76
2022/01/26 11:24:07;;;;;;;32.73;14.87;;;-0.60;99.90;;;;;;5075741;28;20255;-76
2022/01/26 11:26:34;;;;;;;33.40;16.90;;;-0.70;99.90;;;;;;5079898;28;20204;-76
2022/01/26 11:29:13;;;;;;;31.47;17.17;;;-0.70;99.90;;;;;;5079207;28;20204;-75
2022/01/26 11:31:41;;;;;;;33.20;17.50;;;-0.80;99.90;;;;;;5083332;28;20201;-76
2022/01/26 11:34:09;;;;;;;33.73;17.00;;;-0.90;99.90;;;;;;5081893;28;20207;-75
2022/01/26 11:36:35;;;;;;;30.90;16.37;;;-1.00;99.90;;;;;;5081946;28;20695;-76
2022/01/26 11:42:27;;;;;;;33.40;18.13;;;-1.10;99.90;;;;;;5079812;28;20238;-75
2022/01/26 11:45:10;;;;;;;30.60;16.00;;;-1.10;99.90;;;;;;5081222;28;20554;-76
2022/01/26 11:47:39;;;;;;;35.87;17.17;;;-1.10;99.90;;;;;;5084174;28;20203;-76
2022/01/26 11:50:10;;;;;;;32.17;17.40;;;-1.00;99.90;;;;;;5084059;28;20226;-76
2022/01/26 11:52:39;;;;;;;28.73;15.80;;;-1.00;99.90;;;;;;5084284;28;20232;-76
2022/01/26 11:55:19;;;;;;;31.87;16.23;;;-1.10;99.90;;;;;;5081624;28;20201;-75
2022/01/26 11:57:52;;;;;;;39.10;17.70;;;-1.10;99.90;;;;;;5080451;28;20200;-76
2022/01/26 12:00:39;;;;;;;37.00;17.77;;;-1.20;99.90;;;;;;5081111;28;20192;-75
2022/01/26 12:03:10;;;;;;;33.40;17.53;;;-1.10;99.90;;;;;;5080792;28;20196;-74
2022/01/26 12:05:46;;;;;;;32.60;16.47;;;-0.90;99.90;;;;;;5083781;28;20207;-75
2022/01/26 12:08:14;;;;;;;36.07;17.40;;;-1.00;99.90;;;;;;5083123;28;20264;-75
2022/01/26 12:10:45;;;;;;;26.63;14.93;;;-1.00;99.90;;;;;;5083843;28;20556;-76
2022/01/26 12:13:16;;;;;;;28.20;15.17;;;-1.10;99.90;;;;;;5084148;28;20197;-76
2022/01/26 12:15:49;;;;;;;22.10;12.17;;;-1.00;99.90;;;;;;5083380;28;20197;-76
2022/01/26 12:18:25;;;;;;;29.77;15.67;;;-1.20;99.90;;;;;;5083049;28;20185;-76
2022/01/26 12:33:01;;;;;;;21.77;12.93;;;-0.70;99.90;;;;;;5084536;28;20204;-76
2022/01/26 12:35:40;;;;;;;22.23;13.33;;;-0.90;99.90;;;;;;5083239;28;20201;-76
2022/01/26 12:38:14;;;;;;;23.33;12.00;;;-0.90;99.90;;;;;;5083519;28;20789;-76
2022/01/26 12:43:36;;;;;;;22.77;13.13;;;-1.00;99.90;;;;;;5082311;28;20216;-76
2022/01/26 12:46:04;;;;;;;23.03;12.50;;;-0.90;99.90;;;;;;5083862;28;20197;-76
2022/01/26 12:48:34;;;;;;;22.00;12.53;;;-1.10;99.90;;;;;;5082876;28;20246;-76
2022/01/26 12:51:03;;;;;;;24.80;15.27;;;-1.10;99.90;;;;;;5082769;28;20220;-76
2022/01/26 12:53:32;;;;;;;25.50;14.63;;;-1.00;99.90;;;;;;5082401;28;20260;-75
2022/01/26 12:56:03;;;;;;;22.67;13.73;;;-0.90;99.90;;;;;;5081325;28;20239;-76
2022/01/26 12:58:31;;;;;;;25.63;13.70;;;-0.90;99.90;;;;;;5084887;28;20258;-76
2022/01/26 13:01:05;;;;;;;27.23;14.27;;;-0.90;99.90;;;;;;5084934;28;20197;-75
2022/01/26 13:03:35;;;;;;;25.70;13.57;;;-0.90;99.90;;;;;;5084361;28;20197;-76
2022/01/26 13:06:15;;;;;;;26.03;14.67;;;-0.90;99.90;;;;;;5083442;28;20201;-76
2022/01/26 13:08:47;;;;;;;22.93;13.00;;;-0.90;99.90;;;;;;5084862;28;20207;-76
2022/01/26 13:11:22;;;;;;;29.93;15.63;;;-0.90;99.90;;;;;;5084020;28;20201;-76
2022/01/26 13:13:50;;;;;;;21.23;12.70;;;-1.00;99.90;;;;;;5083264;28;20258;-76
2022/01/26 13:16:20;;;;;;;23.00;13.03;;;-1.10;99.90;;;;;;5084369;28;20197;-76
2022/01/26 13:19:12;;;;;;;25.87;14.37;;;-1.00;99.90;;;;;;5083436;28;20198;-76
2022/01/26 13:22:00;;;;;;;29.40;15.37;;;-1.10;99.90;;;;;;5082275;28;20217;-76
2022/01/26 13:24:36;;;;;;;26.27;14.63;;;-1.00;99.90;;;;;;5082830;28;20224;-76
2022/01/26 13:27:13;;;;;;;28.33;14.97;;;-1.10;99.90;;;;;;5083112;28;20197;-75
2022/01/26 13:29:52;;;;;;;27.13;15.63;;;-1.00;99.90;;;;;;5082003;28;20196;-76
2022/01/26 13:32:49;;;;;;;29.70;15.93;;;-1.00;99.90;;;;;;5081521;28;20200;-76
2022/01/26 13:41:00;;;;;;;33.67;16.83;;;-1.30;99.90;;;;;;5084189;28;20250;-76
2022/01/26 13:46:48;;;;;;;28.47;15.30;;;-1.00;99.90;;;;;;5084769;28;20208;-76
2022/01/26 13:49:29;;;;;;;31.50;16.03;;;-1.10;99.90;;;;;;5083908;28;20379;-76
2022/01/26 13:55:05;;;;;;;29.53;16.10;;;-1.30;99.90;;;;;;5083398;28;20239;-76
2022/01/26 14:00:21;;;;;;;31.20;16.53;;;-1.10;99.90;;;;;;5081133;28;20199;-76
2022/01/26 14:02:54;;;;;;;36.70;18.93;;;-1.00;99.90;;;;;;5081030;28;20193;-76
2022/01/26 14:05:21;;;;;;;27.93;15.53;;;-1.10;99.90;;;;;;5083637;28;20243;-75
2022/01/26 14:07:50;;;;;;;24.77;15.17;;;-1.10;99.90;;;;;;5081774;28;20208;-75
2022/01/26 14:10:17;;;;;;;30.17;15.03;;;-1.10;99.90;;;;;;5077605;28;20227;-75
2022/01/26 14:12:47;;;;;;;25.17;14.53;;;-1.10;99.90;;;;;;5078642;28;20197;-75
2022/01/26 14:15:19;;;;;;;27.80;17.60;;;-1.10;99.90;;;;;;5078693;28;20231;-75
2022/01/26 14:18:00;;;;;;;24.27;13.23;;;-1.10;99.90;;;;;;5077708;28;20247;-75
2022/01/26 14:20:45;;;;;;;24.47;12.13;;;-1.10;99.90;;;;;;5077828;28;20287;-75
2022/01/26 14:23:42;;;;;;;23.90;13.27;;;-1.20;99.90;;;;;;5079383;28;20185;-75
2022/01/26 14:26:11;;;;;;;25.90;14.87;;;-1.10;99.90;;;;;;5077949;28;20228;-76